Aérodrome :
LOGIN :

S'inscrire | Disclaimer

   EN    FR    IT 

 










Légende :    VFR   VFR Marginal   IFR   IFR Intensif   IFR Très Intensif
Visi : 
Plafond : 
>= 8 km
>= 3000ft
5 à 8 km
1000 à 3000 ft
1500m à 5 km
500 à 1000 ft
800 à 1500m
200 à 500 ft
< 800m
< 200 ft
Symboles :   Orages  Brouillard  Fortes neiges  Fortes précipitations  Vent > 20 kt
SIGMETs :   Divers  Orages  Givrage  Turbulence  Onde Orograph.  Cendres Volcan.







- Altitude de l'aérodrome : 13 ft
- Code IATA : GOA


LIMJ - Genoa Cristoforo Colombo

DERNIER METAR :
  • 182020Z 04006KT 010V080 CAVOK 08/M02 Q1013

METARs EXPIRÉS :
  • 181950Z 05006KT 010V080 CAVOK 08/M02 Q1014
  • 181920Z 06008G57KT 020V090 CAVOK 08/M02 Q1014
  • 181850Z 11008KT CAVOK 07/M01 Q1014
  • 181820Z 06003G16KT 330V130 CAVOK 09/M02 Q1014
  • 181750Z 36009G47KT 320V040 CAVOK 10/M02 Q1015

TAF AMD TAF LIMJ
Valide du 18 à 18h jusqu'au 19 à 18h UTC


181807Z 1818/1918 01013KT CAVOK
TEMPO 1818/1821 01015G35KT
Pas de NOTAMs connus pour ce terrain.



MET'MAP, la Météo Aéronautique d'un coup d'oeil ! - Copyright ORBIFLY Décembre 2007 - Disclaimer

ORBIFLY MET'MAP TEAM :

Programmation & Développement : Alexandra Zaïnal
Conception & Développement : Baudouin d'Aumeries
Co-Programmation & Développement : Marc-Olivier Méhu
Soutien technique & logistique : Manuel Goepfert

Contact : metmap@orbifly.com




SOURCES & CREDITS :

   NOAA